sensor_id;sensor_type;location;lat;lon;timestamp;P1;durP1;ratioP1;P2;durP2;ratioP2
46210;SDS011;52144;48.040;-1.594;2023-02-03T00:00:05;4.13;;;1.23;;
46210;SDS011;52144;48.040;-1.594;2023-02-03T00:02:34;0.80;;;0.77;;
46210;SDS011;52144;48.040;-1.594;2023-02-03T00:05:03;1.08;;;0.80;;
46210;SDS011;52144;48.040;-1.594;2023-02-03T00:07:31;6.05;;;1.05;;
46210;SDS011;52144;48.040;-1.594;2023-02-03T00:10:00;3.03;;;0.85;;
46210;SDS011;52144;48.040;-1.594;2023-02-03T00:12:29;0.95;;;0.88;;
46210;SDS011;52144;48.040;-1.594;2023-02-03T00:14:58;8.65;;;1.75;;
46210;SDS011;52144;48.040;-1.594;2023-02-03T00:17:26;1.02;;;0.80;;
46210;SDS011;52144;48.040;-1.594;2023-02-03T00:19:53;5.32;;;1.45;;
46210;SDS011;52144;48.040;-1.594;2023-02-03T00:22:21;0.70;;;0.70;;
46210;SDS011;52144;48.040;-1.594;2023-02-03T00:24:49;0.77;;;0.77;;
46210;SDS011;52144;48.040;-1.594;2023-02-03T00:27:17;1.15;;;0.82;;
46210;SDS011;52144;48.040;-1.594;2023-02-03T00:29:44;0.90;;;0.75;;
46210;SDS011;52144;48.040;-1.594;2023-02-03T00:32:13;4.10;;;1.08;;
46210;SDS011;52144;48.040;-1.594;2023-02-03T00:34:41;2.05;;;0.93;;
46210;SDS011;52144;48.040;-1.594;2023-02-03T00:37:10;0.88;;;0.88;;
46210;SDS011;52144;48.040;-1.594;2023-02-03T00:39:38;1.80;;;1.35;;
46210;SDS011;52144;48.040;-1.594;2023-02-03T00:42:06;3.78;;;1.67;;
46210;SDS011;52144;48.040;-1.594;2023-02-03T00:44:34;2.95;;;1.33;;
46210;SDS011;52144;48.040;-1.594;2023-02-03T00:47:02;1.95;;;1.02;;
46210;SDS011;52144;48.040;-1.594;2023-02-03T00:49:31;3.28;;;1.20;;
46210;SDS011;52144;48.040;-1.594;2023-02-03T00:51:59;2.80;;;1.30;;
46210;SDS011;52144;48.040;-1.594;2023-02-03T00:54:26;1.20;;;1.00;;
46210;SDS011;52144;48.040;-1.594;2023-02-03T00:56:54;0.93;;;0.93;;
46210;SDS011;52144;48.040;-1.594;2023-02-03T00:59:22;1.38;;;1.27;;
46210;SDS011;52144;48.040;-1.594;2023-02-03T01:01:50;1.55;;;0.95;;
46210;SDS011;52144;48.040;-1.594;2023-02-03T01:04:18;2.05;;;1.10;;
46210;SDS011;52144;48.040;-1.594;2023-02-03T01:06:47;0.93;;;0.90;;
46210;SDS011;52144;48.040;-1.594;2023-02-03T01:09:15;3.13;;;1.00;;
46210;SDS011;52144;48.040;-1.594;2023-02-03T01:11:43;0.80;;;0.80;;
46210;SDS011;52144;48.040;-1.594;2023-02-03T01:14:10;1.20;;;1.00;;
46210;SDS011;52144;48.040;-1.594;2023-02-03T01:16:38;1.48;;;1.10;;
46210;SDS011;52144;48.040;-1.594;2023-02-03T01:19:06;2.35;;;1.90;;
46210;SDS011;52144;48.040;-1.594;2023-02-03T01:21:34;2.47;;;1.17;;
46210;SDS011;52144;48.040;-1.594;2023-02-03T01:24:04;1.75;;;1.10;;
46210;SDS011;52144;48.040;-1.594;2023-02-03T01:26:31;1.65;;;1.10;;
46210;SDS011;52144;48.040;-1.594;2023-02-03T01:28:59;1.73;;;1.63;;
46210;SDS011;52144;48.040;-1.594;2023-02-03T01:31:28;0.70;;;0.70;;
46210;SDS011;52144;48.040;-1.594;2023-02-03T01:33:57;2.85;;;1.15;;
46210;SDS011;52144;48.040;-1.594;2023-02-03T01:36:25;2.58;;;0.93;;
46210;SDS011;52144;48.040;-1.594;2023-02-03T01:38:55;6.25;;;1.02;;
46210;SDS011;52144;48.040;-1.594;2023-02-03T01:41:25;6.68;;;1.00;;
46210;SDS011;52144;48.040;-1.594;2023-02-03T01:43:54;0.70;;;0.70;;
46210;SDS011;52144;48.040;-1.594;2023-02-03T01:46:25;2.25;;;1.40;;
46210;SDS011;52144;48.040;-1.594;2023-02-03T01:48:58;1.27;;;0.70;;
46210;SDS011;52144;48.040;-1.594;2023-02-03T01:51:31;0.77;;;0.77;;
46210;SDS011;52144;48.040;-1.594;2023-02-03T01:53:59;1.63;;;0.70;;
46210;SDS011;52144;48.040;-1.594;2023-02-03T01:56:29;0.85;;;0.85;;
46210;SDS011;52144;48.040;-1.594;2023-02-03T02:01:29;0.47;;;0.47;;
46210;SDS011;52144;48.040;-1.594;2023-02-03T02:03:58;1.15;;;0.88;;
46210;SDS011;52144;48.040;-1.594;2023-02-03T02:06:29;0.82;;;0.80;;
46210;SDS011;52144;48.040;-1.594;2023-02-03T02:08:57;1.17;;;0.80;;
46210;SDS011;52144;48.040;-1.594;2023-02-03T02:11:26;1.67;;;0.82;;
46210;SDS011;52144;48.040;-1.594;2023-02-03T02:13:57;1.27;;;0.65;;
46210;SDS011;52144;48.040;-1.594;2023-02-03T02:16:30;1.30;;;0.40;;
46210;SDS011;52144;48.040;-1.594;2023-02-03T02:19:22;0.75;;;0.70;;
46210;SDS011;52144;48.040;-1.594;2023-02-03T02:22:10;2.65;;;0.70;;
46210;SDS011;52144;48.040;-1.594;2023-02-03T02:27:51;1.10;;;0.88;;
46210;SDS011;52144;48.040;-1.594;2023-02-03T02:30:42;1.58;;;0.90;;
46210;SDS011;52144;48.040;-1.594;2023-02-03T02:33:34;0.50;;;0.50;;
46210;SDS011;52144;48.040;-1.594;2023-02-03T02:36:10;1.98;;;0.63;;
46210;SDS011;52144;48.040;-1.594;2023-02-03T02:38:48;0.45;;;0.45;;
46210;SDS011;52144;48.040;-1.594;2023-02-03T02:41:25;0.73;;;0.73;;
46210;SDS011;52144;48.040;-1.594;2023-02-03T02:43:59;0.77;;;0.77;;
46210;SDS011;52144;48.040;-1.594;2023-02-03T02:46:32;0.85;;;0.63;;
46210;SDS011;52144;48.040;-1.594;2023-02-03T02:49:05;0.60;;;0.60;;
46210;SDS011;52144;48.040;-1.594;2023-02-03T02:51:39;0.68;;;0.63;;
46210;SDS011;52144;48.040;-1.594;2023-02-03T02:54:12;1.02;;;0.77;;
46210;SDS011;52144;48.040;-1.594;2023-02-03T02:56:43;0.50;;;0.50;;
46210;SDS011;52144;48.040;-1.594;2023-02-03T02:59:15;0.50;;;0.50;;
46210;SDS011;52144;48.040;-1.594;2023-02-03T03:01:43;0.90;;;0.68;;
46210;SDS011;52144;48.040;-1.594;2023-02-03T03:04:13;1.80;;;0.88;;
46210;SDS011;52144;48.040;-1.594;2023-02-03T03:06:45;3.72;;;0.70;;
46210;SDS011;52144;48.040;-1.594;2023-02-03T03:09:15;0.70;;;0.70;;
46210;SDS011;52144;48.040;-1.594;2023-02-03T03:11:48;1.10;;;0.77;;
46210;SDS011;52144;48.040;-1.594;2023-02-03T03:14:18;3.35;;;0.60;;
46210;SDS011;52144;48.040;-1.594;2023-02-03T03:16:50;0.95;;;0.70;;
46210;SDS011;52144;48.040;-1.594;2023-02-03T03:19:28;0.93;;;0.77;;
46210;SDS011;52144;48.040;-1.594;2023-02-03T03:22:00;0.75;;;0.63;;
46210;SDS011;52144;48.040;-1.594;2023-02-03T03:24:30;0.85;;;0.55;;
46210;SDS011;52144;48.040;-1.594;2023-02-03T03:27:01;0.70;;;0.70;;
46210;SDS011;52144;48.040;-1.594;2023-02-03T03:29:34;1.45;;;0.90;;
46210;SDS011;52144;48.040;-1.594;2023-02-03T03:32:08;1.67;;;0.95;;
46210;SDS011;52144;48.040;-1.594;2023-02-03T03:34:37;0.50;;;0.50;;
46210;SDS011;52144;48.040;-1.594;2023-02-03T03:37:09;1.38;;;0.63;;
46210;SDS011;52144;48.040;-1.594;2023-02-03T03:39:41;0.70;;;0.70;;
46210;SDS011;52144;48.040;-1.594;2023-02-03T03:42:16;0.70;;;0.70;;
46210;SDS011;52144;48.040;-1.594;2023-02-03T03:44:50;0.80;;;0.80;;
46210;SDS011;52144;48.040;-1.594;2023-02-03T03:47:23;0.60;;;0.60;;
46210;SDS011;52144;48.040;-1.594;2023-02-03T03:49:58;0.60;;;0.60;;
46210;SDS011;52144;48.040;-1.594;2023-02-03T03:52:29;0.60;;;0.60;;
46210;SDS011;52144;48.040;-1.594;2023-02-03T03:55:00;0.82;;;0.60;;
46210;SDS011;52144;48.040;-1.594;2023-02-03T03:57:30;1.35;;;0.80;;
46210;SDS011;52144;48.040;-1.594;2023-02-03T04:00:03;0.80;;;0.80;;
46210;SDS011;52144;48.040;-1.594;2023-02-03T04:02:35;1.88;;;0.90;;
46210;SDS011;52144;48.040;-1.594;2023-02-03T04:05:08;4.97;;;0.80;;
46210;SDS011;52144;48.040;-1.594;2023-02-03T04:07:38;0.60;;;0.60;;
46210;SDS011;52144;48.040;-1.594;2023-02-03T04:10:11;0.80;;;0.80;;
46210;SDS011;52144;48.040;-1.594;2023-02-03T04:12:44;0.68;;;0.68;;
46210;SDS011;52144;48.040;-1.594;2023-02-03T04:15:12;1.60;;;1.00;;
46210;SDS011;52144;48.040;-1.594;2023-02-03T04:17:40;0.75;;;0.75;;
46210;SDS011;52144;48.040;-1.594;2023-02-03T04:20:10;0.70;;;0.57;;
46210;SDS011;52144;48.040;-1.594;2023-02-03T04:22:38;0.60;;;0.60;;
46210;SDS011;52144;48.040;-1.594;2023-02-03T04:25:06;2.72;;;0.98;;
46210;SDS011;52144;48.040;-1.594;2023-02-03T04:27:34;0.77;;;0.77;;
46210;SDS011;52144;48.040;-1.594;2023-02-03T04:30:03;0.75;;;0.75;;
46210;SDS011;52144;48.040;-1.594;2023-02-03T04:32:31;1.80;;;0.90;;
46210;SDS011;52144;48.040;-1.594;2023-02-03T04:35:00;2.00;;;0.80;;
46210;SDS011;52144;48.040;-1.594;2023-02-03T04:37:30;0.50;;;0.50;;
46210;SDS011;52144;48.040;-1.594;2023-02-03T04:39:58;0.50;;;0.50;;
46210;SDS011;52144;48.040;-1.594;2023-02-03T04:42:26;0.80;;;0.80;;
46210;SDS011;52144;48.040;-1.594;2023-02-03T04:44:54;0.80;;;0.80;;
46210;SDS011;52144;48.040;-1.594;2023-02-03T04:47:22;0.52;;;0.52;;
46210;SDS011;52144;48.040;-1.594;2023-02-03T04:49:50;1.73;;;0.80;;
46210;SDS011;52144;48.040;-1.594;2023-02-03T04:52:17;0.70;;;0.57;;
46210;SDS011;52144;48.040;-1.594;2023-02-03T04:54:46;0.77;;;0.60;;
46210;SDS011;52144;48.040;-1.594;2023-02-03T04:57:14;0.60;;;0.60;;
46210;SDS011;52144;48.040;-1.594;2023-02-03T04:59:42;2.97;;;0.77;;
46210;SDS011;52144;48.040;-1.594;2023-02-03T05:02:10;0.70;;;0.70;;
46210;SDS011;52144;48.040;-1.594;2023-02-03T05:04:37;5.00;;;0.98;;
46210;SDS011;52144;48.040;-1.594;2023-02-03T05:07:05;1.58;;;0.73;;
46210;SDS011;52144;48.040;-1.594;2023-02-03T05:09:33;0.60;;;0.57;;
46210;SDS011;52144;48.040;-1.594;2023-02-03T05:12:02;0.80;;;0.80;;
46210;SDS011;52144;48.040;-1.594;2023-02-03T05:14:30;2.60;;;0.70;;
46210;SDS011;52144;48.040;-1.594;2023-02-03T05:16:58;1.50;;;0.85;;
46210;SDS011;52144;48.040;-1.594;2023-02-03T05:19:26;1.75;;;0.98;;
46210;SDS011;52144;48.040;-1.594;2023-02-03T05:21:53;0.75;;;0.68;;
46210;SDS011;52144;48.040;-1.594;2023-02-03T05:24:21;2.40;;;0.68;;
46210;SDS011;52144;48.040;-1.594;2023-02-03T05:26:49;0.75;;;0.75;;
46210;SDS011;52144;48.040;-1.594;2023-02-03T05:29:18;0.60;;;0.60;;
46210;SDS011;52144;48.040;-1.594;2023-02-03T05:31:46;1.65;;;0.70;;
46210;SDS011;52144;48.040;-1.594;2023-02-03T05:34:14;4.55;;;1.05;;
46210;SDS011;52144;48.040;-1.594;2023-02-03T05:36:42;0.70;;;0.70;;
46210;SDS011;52144;48.040;-1.594;2023-02-03T05:39:09;4.53;;;1.20;;
46210;SDS011;52144;48.040;-1.594;2023-02-03T05:41:37;1.17;;;0.65;;
46210;SDS011;52144;48.040;-1.594;2023-02-03T05:44:25;0.40;;;0.40;;
46210;SDS011;52144;48.040;-1.594;2023-02-03T05:46:54;0.50;;;0.50;;
46210;SDS011;52144;48.040;-1.594;2023-02-03T05:49:23;1.05;;;0.95;;
46210;SDS011;52144;48.040;-1.594;2023-02-03T05:51:51;0.65;;;0.65;;
46210;SDS011;52144;48.040;-1.594;2023-02-03T05:54:21;0.68;;;0.68;;
46210;SDS011;52144;48.040;-1.594;2023-02-03T05:56:49;1.38;;;0.65;;
46210;SDS011;52144;48.040;-1.594;2023-02-03T05:59:17;2.60;;;0.88;;
46210;SDS011;52144;48.040;-1.594;2023-02-03T06:01:46;0.60;;;0.60;;
46210;SDS011;52144;48.040;-1.594;2023-02-03T06:04:14;3.05;;;1.30;;
46210;SDS011;52144;48.040;-1.594;2023-02-03T06:06:42;1.05;;;0.93;;
46210;SDS011;52144;48.040;-1.594;2023-02-03T06:09:10;1.90;;;1.05;;
46210;SDS011;52144;48.040;-1.594;2023-02-03T06:11:38;0.95;;;0.70;;
46210;SDS011;52144;48.040;-1.594;2023-02-03T06:14:07;1.67;;;0.68;;
46210;SDS011;52144;48.040;-1.594;2023-02-03T06:16:35;0.52;;;0.52;;
46210;SDS011;52144;48.040;-1.594;2023-02-03T06:19:04;1.05;;;0.80;;
46210;SDS011;52144;48.040;-1.594;2023-02-03T06:21:32;0.90;;;0.60;;
46210;SDS011;52144;48.040;-1.594;2023-02-03T06:24:00;0.63;;;0.63;;
46210;SDS011;52144;48.040;-1.594;2023-02-03T06:26:29;0.50;;;0.50;;
46210;SDS011;52144;48.040;-1.594;2023-02-03T06:28:56;1.05;;;0.70;;
46210;SDS011;52144;48.040;-1.594;2023-02-03T06:31:24;1.00;;;0.75;;
46210;SDS011;52144;48.040;-1.594;2023-02-03T06:33:52;0.80;;;0.80;;
46210;SDS011;52144;48.040;-1.594;2023-02-03T06:36:23;1.40;;;0.75;;
46210;SDS011;52144;48.040;-1.594;2023-02-03T06:38:51;3.63;;;0.77;;
46210;SDS011;52144;48.040;-1.594;2023-02-03T06:41:19;2.40;;;0.82;;
46210;SDS011;52144;48.040;-1.594;2023-02-03T06:43:52;0.43;;;0.43;;
46210;SDS011;52144;48.040;-1.594;2023-02-03T06:46:20;1.73;;;0.90;;
46210;SDS011;52144;48.040;-1.594;2023-02-03T06:48:48;1.52;;;0.77;;
46210;SDS011;52144;48.040;-1.594;2023-02-03T06:51:15;1.90;;;1.15;;
46210;SDS011;52144;48.040;-1.594;2023-02-03T06:53:45;0.90;;;0.90;;
46210;SDS011;52144;48.040;-1.594;2023-02-03T06:56:12;1.38;;;0.68;;
46210;SDS011;52144;48.040;-1.594;2023-02-03T06:58:40;0.85;;;0.80;;
46210;SDS011;52144;48.040;-1.594;2023-02-03T07:01:09;1.00;;;0.85;;
46210;SDS011;52144;48.040;-1.594;2023-02-03T07:03:37;1.77;;;0.90;;
46210;SDS011;52144;48.040;-1.594;2023-02-03T07:06:05;0.70;;;0.70;;
46210;SDS011;52144;48.040;-1.594;2023-02-03T07:08:33;0.70;;;0.70;;
46210;SDS011;52144;48.040;-1.594;2023-02-03T07:11:03;1.17;;;0.90;;
46210;SDS011;52144;48.040;-1.594;2023-02-03T07:13:31;2.10;;;0.68;;
46210;SDS011;52144;48.040;-1.594;2023-02-03T07:15:59;3.40;;;1.00;;
46210;SDS011;52144;48.040;-1.594;2023-02-03T07:18:26;3.58;;;1.35;;
46210;SDS011;52144;48.040;-1.594;2023-02-03T07:21:13;3.40;;;1.00;;
46210;SDS011;52144;48.040;-1.594;2023-02-03T07:23:41;0.68;;;0.68;;
46210;SDS011;52144;48.040;-1.594;2023-02-03T07:26:11;2.30;;;1.10;;
46210;SDS011;52144;48.040;-1.594;2023-02-03T07:28:38;4.45;;;1.08;;
46210;SDS011;52144;48.040;-1.594;2023-02-03T07:31:06;1.48;;;0.93;;
46210;SDS011;52144;48.040;-1.594;2023-02-03T07:33:35;3.05;;;0.63;;
46210;SDS011;52144;48.040;-1.594;2023-02-03T07:36:05;0.50;;;0.50;;
46210;SDS011;52144;48.040;-1.594;2023-02-03T07:38:33;1.15;;;1.08;;
46210;SDS011;52144;48.040;-1.594;2023-02-03T07:41:03;1.85;;;0.98;;
46210;SDS011;52144;48.040;-1.594;2023-02-03T07:43:32;3.10;;;1.02;;
46210;SDS011;52144;48.040;-1.594;2023-02-03T07:46:00;2.38;;;1.00;;
46210;SDS011;52144;48.040;-1.594;2023-02-03T07:48:28;0.85;;;0.85;;
46210;SDS011;52144;48.040;-1.594;2023-02-03T07:50:55;0.57;;;0.57;;
46210;SDS011;52144;48.040;-1.594;2023-02-03T07:53:23;0.65;;;0.65;;
46210;SDS011;52144;48.040;-1.594;2023-02-03T07:55:51;1.42;;;0.70;;
46210;SDS011;52144;48.040;-1.594;2023-02-03T07:58:19;0.80;;;0.80;;
46210;SDS011;52144;48.040;-1.594;2023-02-03T08:00:48;1.45;;;0.90;;
46210;SDS011;52144;48.040;-1.594;2023-02-03T08:03:15;1.25;;;1.15;;
46210;SDS011;52144;48.040;-1.594;2023-02-03T08:05:43;1.95;;;1.10;;
46210;SDS011;52144;48.040;-1.594;2023-02-03T08:08:11;1.27;;;1.00;;
46210;SDS011;52144;48.040;-1.594;2023-02-03T08:10:39;2.63;;;1.73;;
46210;SDS011;52144;48.040;-1.594;2023-02-03T08:13:06;3.60;;;1.92;;
46210;SDS011;52144;48.040;-1.594;2023-02-03T08:15:34;2.35;;;1.50;;
46210;SDS011;52144;48.040;-1.594;2023-02-03T08:18:04;4.03;;;2.15;;
46210;SDS011;52144;48.040;-1.594;2023-02-03T08:20:34;4.88;;;2.65;;
46210;SDS011;52144;48.040;-1.594;2023-02-03T08:23:02;2.92;;;2.17;;
46210;SDS011;52144;48.040;-1.594;2023-02-03T08:25:29;2.63;;;1.88;;
46210;SDS011;52144;48.040;-1.594;2023-02-03T08:27:57;4.63;;;1.60;;
46210;SDS011;52144;48.040;-1.594;2023-02-03T08:30:25;2.28;;;1.77;;
46210;SDS011;52144;48.040;-1.594;2023-02-03T08:32:54;1.20;;;1.10;;
46210;SDS011;52144;48.040;-1.594;2023-02-03T08:35:23;1.55;;;1.10;;
46210;SDS011;52144;48.040;-1.594;2023-02-03T08:37:51;0.88;;;0.85;;
46210;SDS011;52144;48.040;-1.594;2023-02-03T08:40:19;1.02;;;0.93;;
46210;SDS011;52144;48.040;-1.594;2023-02-03T08:42:47;1.98;;;1.42;;
46210;SDS011;52144;48.040;-1.594;2023-02-03T08:45:15;1.40;;;1.10;;
46210;SDS011;52144;48.040;-1.594;2023-02-03T08:47:42;2.22;;;1.20;;
46210;SDS011;52144;48.040;-1.594;2023-02-03T08:50:10;3.92;;;1.15;;
46210;SDS011;52144;48.040;-1.594;2023-02-03T08:52:40;2.80;;;1.35;;
46210;SDS011;52144;48.040;-1.594;2023-02-03T08:55:07;0.88;;;0.88;;
46210;SDS011;52144;48.040;-1.594;2023-02-03T08:57:36;1.90;;;0.88;;
46210;SDS011;52144;48.040;-1.594;2023-02-03T09:00:05;3.40;;;2.03;;
46210;SDS011;52144;48.040;-1.594;2023-02-03T09:02:34;6.78;;;2.90;;
46210;SDS011;52144;48.040;-1.594;2023-02-03T09:05:02;6.47;;;2.63;;
46210;SDS011;52144;48.040;-1.594;2023-02-03T09:07:30;5.07;;;2.22;;
46210;SDS011;52144;48.040;-1.594;2023-02-03T09:09:59;4.05;;;2.22;;
46210;SDS011;52144;48.040;-1.594;2023-02-03T09:12:26;7.18;;;2.42;;
46210;SDS011;52144;48.040;-1.594;2023-02-03T09:14:54;1.58;;;1.35;;
46210;SDS011;52144;48.040;-1.594;2023-02-03T09:17:22;1.77;;;1.35;;
46210;SDS011;52144;48.040;-1.594;2023-02-03T09:19:50;4.95;;;2.42;;
46210;SDS011;52144;48.040;-1.594;2023-02-03T09:22:17;3.95;;;2.25;;
46210;SDS011;52144;48.040;-1.594;2023-02-03T09:24:45;3.17;;;1.75;;
46210;SDS011;52144;48.040;-1.594;2023-02-03T09:27:17;2.25;;;1.80;;
46210;SDS011;52144;48.040;-1.594;2023-02-03T09:29:45;2.15;;;1.33;;
46210;SDS011;52144;48.040;-1.594;2023-02-03T09:32:12;4.28;;;1.40;;
46210;SDS011;52144;48.040;-1.594;2023-02-03T09:34:41;5.22;;;1.95;;
46210;SDS011;52144;48.040;-1.594;2023-02-03T09:37:08;2.50;;;1.50;;
46210;SDS011;52144;48.040;-1.594;2023-02-03T09:39:36;1.25;;;1.15;;
46210;SDS011;52144;48.040;-1.594;2023-02-03T09:42:21;2.10;;;1.50;;
46210;SDS011;52144;48.040;-1.594;2023-02-03T09:45:02;3.85;;;1.52;;
46210;SDS011;52144;48.040;-1.594;2023-02-03T09:47:37;1.85;;;1.52;;
46210;SDS011;52144;48.040;-1.594;2023-02-03T09:50:10;3.10;;;1.35;;
46210;SDS011;52144;48.040;-1.594;2023-02-03T09:52:40;3.03;;;1.27;;
46210;SDS011;52144;48.040;-1.594;2023-02-03T09:55:14;3.22;;;1.23;;
46210;SDS011;52144;48.040;-1.594;2023-02-03T09:57:53;1.98;;;1.60;;
46210;SDS011;52144;48.040;-1.594;2023-02-03T10:00:27;2.25;;;1.63;;
46210;SDS011;52144;48.040;-1.594;2023-02-03T10:02:59;1.92;;;1.35;;
46210;SDS011;52144;48.040;-1.594;2023-02-03T10:08:26;5.05;;;1.30;;
46210;SDS011;52144;48.040;-1.594;2023-02-03T10:11:03;2.60;;;1.02;;
46210;SDS011;52144;48.040;-1.594;2023-02-03T10:13:47;1.23;;;1.00;;
46210;SDS011;52144;48.040;-1.594;2023-02-03T10:16:25;1.17;;;1.02;;
46210;SDS011;52144;48.040;-1.594;2023-02-03T10:19:06;2.83;;;1.55;;
46210;SDS011;52144;48.040;-1.594;2023-02-03T10:21:39;2.58;;;1.35;;
46210;SDS011;52144;48.040;-1.594;2023-02-03T10:24:09;3.28;;;2.47;;
46210;SDS011;52144;48.040;-1.594;2023-02-03T10:26:41;2.97;;;1.13;;
46210;SDS011;52144;48.040;-1.594;2023-02-03T10:29:16;1.17;;;0.88;;
46210;SDS011;52144;48.040;-1.594;2023-02-03T10:31:46;1.65;;;0.93;;
46210;SDS011;52144;48.040;-1.594;2023-02-03T10:34:15;4.72;;;0.98;;
46210;SDS011;52144;48.040;-1.594;2023-02-03T10:36:47;0.73;;;0.70;;
46210;SDS011;52144;48.040;-1.594;2023-02-03T10:39:25;2.78;;;0.93;;
46210;SDS011;52144;48.040;-1.594;2023-02-03T10:41:57;0.98;;;0.90;;
46210;SDS011;52144;48.040;-1.594;2023-02-03T10:44:30;1.00;;;0.75;;
46210;SDS011;52144;48.040;-1.594;2023-02-03T10:47:08;0.80;;;0.60;;
46210;SDS011;52144;48.040;-1.594;2023-02-03T10:49:44;2.17;;;0.90;;
46210;SDS011;52144;48.040;-1.594;2023-02-03T10:52:23;1.52;;;0.70;;
46210;SDS011;52144;48.040;-1.594;2023-02-03T10:54:52;1.40;;;0.88;;
46210;SDS011;52144;48.040;-1.594;2023-02-03T10:57:21;0.60;;;0.60;;
46210;SDS011;52144;48.040;-1.594;2023-02-03T10:59:50;2.13;;;1.13;;
46210;SDS011;52144;48.040;-1.594;2023-02-03T11:02:22;1.98;;;0.90;;
46210;SDS011;52144;48.040;-1.594;2023-02-03T11:05:08;0.90;;;0.82;;
46210;SDS011;52144;48.040;-1.594;2023-02-03T11:07:37;1.23;;;1.20;;
46210;SDS011;52144;48.040;-1.594;2023-02-03T11:13:14;1.45;;;0.80;;
46210;SDS011;52144;48.040;-1.594;2023-02-03T11:15:52;2.85;;;1.45;;
46210;SDS011;52144;48.040;-1.594;2023-02-03T11:18:24;1.45;;;0.77;;
46210;SDS011;52144;48.040;-1.594;2023-02-03T11:21:14;0.88;;;0.88;;
46210;SDS011;52144;48.040;-1.594;2023-02-03T11:23:45;1.17;;;1.08;;
46210;SDS011;52144;48.040;-1.594;2023-02-03T11:26:17;0.80;;;0.80;;
46210;SDS011;52144;48.040;-1.594;2023-02-03T11:28:48;1.75;;;0.98;;
46210;SDS011;52144;48.040;-1.594;2023-02-03T11:31:20;0.63;;;0.50;;
46210;SDS011;52144;48.040;-1.594;2023-02-03T11:33:52;1.42;;;1.23;;
46210;SDS011;52144;48.040;-1.594;2023-02-03T11:36:24;1.50;;;1.23;;
46210;SDS011;52144;48.040;-1.594;2023-02-03T11:39:07;1.48;;;1.23;;
46210;SDS011;52144;48.040;-1.594;2023-02-03T11:41:37;5.22;;;1.15;;
46210;SDS011;52144;48.040;-1.594;2023-02-03T11:44:09;0.88;;;0.88;;
46210;SDS011;52144;48.040;-1.594;2023-02-03T11:46:40;1.40;;;1.10;;
46210;SDS011;52144;48.040;-1.594;2023-02-03T11:49:11;0.80;;;0.70;;
46210;SDS011;52144;48.040;-1.594;2023-02-03T11:52:00;1.50;;;1.40;;
46210;SDS011;52144;48.040;-1.594;2023-02-03T11:54:38;1.13;;;0.85;;
46210;SDS011;52144;48.040;-1.594;2023-02-03T11:57:20;0.70;;;0.70;;
46210;SDS011;52144;48.040;-1.594;2023-02-03T12:00:02;0.82;;;0.80;;
46210;SDS011;52144;48.040;-1.594;2023-02-03T12:05:50;1.00;;;0.90;;
46210;SDS011;52144;48.040;-1.594;2023-02-03T12:11:08;1.25;;;0.98;;
46210;SDS011;52144;48.040;-1.594;2023-02-03T12:13:51;1.88;;;0.98;;
46210;SDS011;52144;48.040;-1.594;2023-02-03T12:19:29;0.90;;;0.88;;
46210;SDS011;52144;48.040;-1.594;2023-02-03T12:22:13;1.40;;;1.15;;
46210;SDS011;52144;48.040;-1.594;2023-02-03T12:24:49;0.50;;;0.50;;
46210;SDS011;52144;48.040;-1.594;2023-02-03T12:27:29;0.73;;;0.73;;
46210;SDS011;52144;48.040;-1.594;2023-02-03T12:30:10;0.70;;;0.60;;
46210;SDS011;52144;48.040;-1.594;2023-02-03T12:32:45;0.75;;;0.73;;
46210;SDS011;52144;48.040;-1.594;2023-02-03T12:35:17;3.88;;;0.90;;
46210;SDS011;52144;48.040;-1.594;2023-02-03T12:37:51;0.88;;;0.85;;
46210;SDS011;52144;48.040;-1.594;2023-02-03T12:40:27;0.70;;;0.70;;
46210;SDS011;52144;48.040;-1.594;2023-02-03T12:43:07;0.75;;;0.73;;
46210;SDS011;52144;48.040;-1.594;2023-02-03T12:45:48;1.10;;;1.00;;
46210;SDS011;52144;48.040;-1.594;2023-02-03T12:48:21;1.08;;;1.02;;
46210;SDS011;52144;48.040;-1.594;2023-02-03T12:50:55;1.10;;;0.60;;
46210;SDS011;52144;48.040;-1.594;2023-02-03T12:53:29;0.63;;;0.63;;
46210;SDS011;52144;48.040;-1.594;2023-02-03T12:58:32;0.50;;;0.43;;
46210;SDS011;52144;48.040;-1.594;2023-02-03T13:01:04;0.90;;;0.70;;
46210;SDS011;52144;48.040;-1.594;2023-02-03T13:03:36;3.08;;;1.20;;
46210;SDS011;52144;48.040;-1.594;2023-02-03T13:06:11;1.35;;;0.82;;
46210;SDS011;52144;48.040;-1.594;2023-02-03T13:08:45;1.08;;;0.85;;
46210;SDS011;52144;48.040;-1.594;2023-02-03T13:11:22;2.33;;;1.08;;
46210;SDS011;52144;48.040;-1.594;2023-02-03T13:13:56;4.10;;;0.73;;
46210;SDS011;52144;48.040;-1.594;2023-02-03T13:16:31;1.83;;;0.60;;
46210;SDS011;52144;48.040;-1.594;2023-02-03T13:19:04;0.88;;;0.75;;
46210;SDS011;52144;48.040;-1.594;2023-02-03T13:21:37;0.68;;;0.60;;
46210;SDS011;52144;48.040;-1.594;2023-02-03T13:24:06;2.70;;;1.17;;
46210;SDS011;52144;48.040;-1.594;2023-02-03T13:29:34;4.03;;;1.55;;
46210;SDS011;52144;48.040;-1.594;2023-02-03T13:32:23;2.55;;;1.08;;
46210;SDS011;52144;48.040;-1.594;2023-02-03T13:35:08;3.92;;;0.95;;
46210;SDS011;52144;48.040;-1.594;2023-02-03T13:38:05;1.60;;;1.25;;
46210;SDS011;52144;48.040;-1.594;2023-02-03T13:40:56;1.55;;;0.90;;
46210;SDS011;52144;48.040;-1.594;2023-02-03T13:43:31;2.22;;;1.00;;
46210;SDS011;52144;48.040;-1.594;2023-02-03T13:46:05;1.30;;;0.90;;
46210;SDS011;52144;48.040;-1.594;2023-02-03T13:48:45;1.33;;;1.00;;
46210;SDS011;52144;48.040;-1.594;2023-02-03T13:51:14;4.47;;;1.80;;
46210;SDS011;52144;48.040;-1.594;2023-02-03T13:53:46;2.20;;;1.40;;
46210;SDS011;52144;48.040;-1.594;2023-02-03T13:56:18;2.17;;;1.70;;
46210;SDS011;52144;48.040;-1.594;2023-02-03T13:58:58;1.38;;;1.20;;
46210;SDS011;52144;48.040;-1.594;2023-02-03T14:01:34;1.77;;;1.35;;
46210;SDS011;52144;48.040;-1.594;2023-02-03T14:04:04;2.30;;;1.38;;
46210;SDS011;52144;48.040;-1.594;2023-02-03T14:09:35;1.13;;;1.08;;
46210;SDS011;52144;48.040;-1.594;2023-02-03T14:12:29;3.53;;;1.10;;
46210;SDS011;52144;48.040;-1.594;2023-02-03T14:23:56;1.60;;;1.33;;
46210;SDS011;52144;48.040;-1.594;2023-02-03T14:26:33;0.95;;;0.93;;
46210;SDS011;52144;48.040;-1.594;2023-02-03T14:29:06;2.83;;;1.50;;
46210;SDS011;52144;48.040;-1.594;2023-02-03T14:34:31;3.28;;;1.42;;
46210;SDS011;52144;48.040;-1.594;2023-02-03T14:37:11;1.83;;;0.95;;
46210;SDS011;52144;48.040;-1.594;2023-02-03T14:43:00;2.92;;;1.95;;
46210;SDS011;52144;48.040;-1.594;2023-02-03T14:45:48;4.43;;;3.00;;
46210;SDS011;52144;48.040;-1.594;2023-02-03T14:48:35;5.22;;;2.08;;
46210;SDS011;52144;48.040;-1.594;2023-02-03T14:51:14;2.05;;;1.45;;
46210;SDS011;52144;48.040;-1.594;2023-02-03T14:54:01;3.17;;;2.30;;
46210;SDS011;52144;48.040;-1.594;2023-02-03T14:56:45;1.10;;;0.63;;
46210;SDS011;52144;48.040;-1.594;2023-02-03T14:59:40;1.23;;;1.10;;
46210;SDS011;52144;48.040;-1.594;2023-02-03T15:02:16;4.18;;;1.27;;
46210;SDS011;52144;48.040;-1.594;2023-02-03T15:04:46;2.60;;;1.67;;
46210;SDS011;52144;48.040;-1.594;2023-02-03T15:10:14;3.38;;;1.20;;
46210;SDS011;52144;48.040;-1.594;2023-02-03T15:12:46;1.10;;;0.88;;
46210;SDS011;52144;48.040;-1.594;2023-02-03T15:15:19;1.40;;;1.30;;
46210;SDS011;52144;48.040;-1.594;2023-02-03T15:17:50;1.27;;;1.17;;
46210;SDS011;52144;48.040;-1.594;2023-02-03T15:20:24;1.27;;;1.00;;
46210;SDS011;52144;48.040;-1.594;2023-02-03T15:22:55;1.33;;;1.23;;
46210;SDS011;52144;48.040;-1.594;2023-02-03T15:25:23;1.23;;;1.02;;
46210;SDS011;52144;48.040;-1.594;2023-02-03T15:27:53;1.88;;;1.48;;
46210;SDS011;52144;48.040;-1.594;2023-02-03T15:30:23;2.60;;;1.80;;
46210;SDS011;52144;48.040;-1.594;2023-02-03T15:32:57;3.40;;;2.03;;
46210;SDS011;52144;48.040;-1.594;2023-02-03T15:35:31;2.72;;;2.53;;
46210;SDS011;52144;48.040;-1.594;2023-02-03T15:38:01;2.35;;;2.15;;
46210;SDS011;52144;48.040;-1.594;2023-02-03T15:40:33;2.97;;;1.83;;
46210;SDS011;52144;48.040;-1.594;2023-02-03T15:43:06;3.63;;;2.22;;
46210;SDS011;52144;48.040;-1.594;2023-02-03T15:45:39;3.30;;;2.72;;